createdAt,value
2022-11-03T00:02:07.774Z,0.15
2022-11-03T00:04:34.453Z,0.26
2022-11-03T00:07:01.141Z,0.29
2022-11-03T00:09:27.800Z,0.31
2022-11-03T00:11:54.891Z,0.40
2022-11-03T00:14:21.684Z,-0.15
2022-11-03T00:16:48.621Z,0.31
2022-11-03T00:19:17.061Z,-0.03
2022-11-03T00:21:44.321Z,-0.01
2022-11-03T00:24:11.698Z,0.62
2022-11-03T00:26:38.998Z,0.79
2022-11-03T00:29:11.482Z,0.52
2022-11-03T00:31:40.995Z,0.67
2022-11-03T00:34:08.722Z,0.85
2022-11-03T00:36:44.779Z,0.75
2022-11-03T00:39:12.769Z,0.47
2022-11-03T00:41:39.725Z,0.33
2022-11-03T00:44:06.880Z,0.34
2022-11-03T00:46:36.297Z,0.51
2022-11-03T00:49:04.575Z,-0.06
2022-11-03T00:51:31.652Z,-0.33
2022-11-03T00:54:02.411Z,0.13
2022-11-03T00:56:34.738Z,0.11
2022-11-03T00:59:02.484Z,0.27
2022-11-03T01:01:31.789Z,0.27
2022-11-03T01:04:17.653Z,-0.05
2022-11-03T01:06:50.402Z,0.26
2022-11-03T01:09:20.144Z,0.57
2022-11-03T01:12:03.482Z,0.57
2022-11-03T01:14:33.546Z,0.38
2022-11-03T01:17:00.812Z,0.63
2022-11-03T01:19:28.064Z,0.44
2022-11-03T01:21:54.672Z,0.49
2022-11-03T01:24:21.978Z,0.55
2022-11-03T01:26:48.740Z,0.61
2022-11-03T01:29:15.505Z,0.29
2022-11-03T01:31:42.263Z,0.18
2022-11-03T01:34:14.492Z,-0.21
2022-11-03T01:36:41.130Z,0.28
2022-11-03T01:39:10.797Z,-0.15
2022-11-03T01:41:37.753Z,0.03
2022-11-03T01:44:28.464Z,0.27
2022-11-03T01:46:55.093Z,0.39
2022-11-03T01:49:47.061Z,0.20
2022-11-03T01:52:24.142Z,0.23
2022-11-03T01:55:00.352Z,0.34
2022-11-03T01:57:35.239Z,0.25
2022-11-03T02:00:02.646Z,0.51
2022-11-03T02:02:39.681Z,0.31
2022-11-03T02:05:07.526Z,0.39
2022-11-03T02:07:48.739Z,0.14
2022-11-03T02:10:15.653Z,0.11
2022-11-03T02:12:43.938Z,0.03
2022-11-03T02:15:14.525Z,-0.15
2022-11-03T02:17:43.413Z,-0.05
2022-11-03T02:20:14.936Z,0.23
2022-11-03T02:22:55.065Z,0.20
2022-11-03T02:25:36.918Z,0.29
2022-11-03T02:28:05.851Z,0.27
2022-11-03T02:30:41.836Z,0.47
2022-11-03T02:33:19.697Z,0.32
2022-11-03T02:36:02.284Z,-0.45
2022-11-03T02:38:32.225Z,0.06
2022-11-03T02:41:03.091Z,-0.23
2022-11-03T02:43:30.252Z,0.08
2022-11-03T02:45:56.916Z,0.18
2022-11-03T02:48:23.666Z,-0.21
2022-11-03T02:50:50.253Z,-0.04
2022-11-03T02:53:17.489Z,0.07
2022-11-03T02:56:22.582Z,0.23
2022-11-03T02:59:02.770Z,0.07
2022-11-03T03:01:49.382Z,-0.04
2022-11-03T03:04:57.070Z,-0.09
2022-11-03T03:07:36.998Z,-0.13
2022-11-03T03:10:11.717Z,-0.20
2022-11-03T03:12:43.217Z,-0.27
2022-11-03T03:15:12.912Z,-0.38
2022-11-03T03:17:48.513Z,-0.03
2022-11-03T03:20:23.278Z,-0.53
2022-11-03T03:22:58.672Z,-0.42
2022-11-03T03:25:32.390Z,-0.19
2022-11-03T03:28:06.313Z,-0.57
2022-11-03T03:30:35.551Z,-0.37
2022-11-03T03:33:05.635Z,-0.22
2022-11-03T03:35:34.808Z,-0.28
2022-11-03T03:38:10.909Z,-0.35
2022-11-03T03:40:40.935Z,-0.15
2022-11-03T03:43:10.545Z,-0.27
2022-11-03T03:45:38.586Z,-0.26
2022-11-03T03:48:07.187Z,-0.63
2022-11-03T03:50:38.053Z,-0.69
2022-11-03T03:53:09.893Z,-0.38
2022-11-03T03:55:39.282Z,-0.27
2022-11-03T03:58:06.875Z,-0.54
2022-11-03T04:00:33.768Z,-0.29
2022-11-03T04:03:00.421Z,-0.12
2022-11-03T04:05:27.619Z,-0.18
2022-11-03T04:07:54.240Z,-0.16
2022-11-03T04:10:22.703Z,-0.40
2022-11-03T04:13:08.366Z,-0.04
2022-11-03T04:15:53.769Z,-0.30
2022-11-03T04:18:40.650Z,-0.61
2022-11-03T04:21:30.680Z,-0.41
2022-11-03T04:23:57.457Z,-0.55
2022-11-03T04:26:24.231Z,-0.36
2022-11-03T04:28:53.359Z,-0.86
2022-11-03T04:31:20.815Z,-0.21
2022-11-03T04:33:48.369Z,-0.27
2022-11-03T04:36:22.401Z,-0.23
2022-11-03T04:38:50.243Z,-0.51
2022-11-03T04:41:22.861Z,-0.44
2022-11-03T04:43:51.371Z,-0.15
2022-11-03T04:46:24.742Z,-0.57
2022-11-03T04:48:53.428Z,-0.49
2022-11-03T04:51:24.416Z,-0.46
2022-11-03T04:54:17.677Z,-0.47
2022-11-03T04:56:44.364Z,-0.55
2022-11-03T04:59:12.691Z,-0.30
2022-11-03T05:01:39.780Z,-0.68
2022-11-03T05:04:16.083Z,-0.46
2022-11-03T05:06:51.865Z,-0.83
2022-11-03T05:09:24.698Z,-0.90
2022-11-03T05:11:51.354Z,-0.55
2022-11-03T05:14:25.056Z,-0.36
2022-11-03T05:16:56.053Z,-0.38
2022-11-03T05:19:31.799Z,-0.38
2022-11-03T05:22:00.228Z,-0.42
2022-11-03T05:24:27.691Z,-0.38
2022-11-03T05:26:57.961Z,-0.65
2022-11-03T05:29:45.058Z,-0.21
2022-11-03T05:32:16.240Z,-0.41
2022-11-03T05:34:45.289Z,-0.28
2022-11-03T05:37:26.710Z,-0.44
2022-11-03T05:39:57.423Z,-0.66
2022-11-03T05:42:23.958Z,-0.63
2022-11-03T05:44:51.699Z,-0.88
2022-11-03T05:47:22.872Z,-0.63
2022-11-03T05:49:51.200Z,-0.69
2022-11-03T05:52:26.654Z,-0.93
2022-11-03T05:54:59.076Z,-0.91
2022-11-03T05:57:28.422Z,-0.97
2022-11-03T05:59:55.859Z,-1.54
2022-11-03T06:02:38.889Z,-0.83
2022-11-03T06:05:18.326Z,-1.30
2022-11-03T06:07:45.063Z,-1.06
2022-11-03T06:10:23.932Z,-0.67
2022-11-03T06:12:50.559Z,-0.90
2022-11-03T06:15:32.182Z,-0.66
2022-11-03T06:17:59.968Z,-1.29
2022-11-03T06:20:27.938Z,-0.61
2022-11-03T06:22:57.065Z,-0.70
2022-11-03T06:25:23.656Z,-0.49
2022-11-03T06:27:51.401Z,-0.76
2022-11-03T06:30:35.930Z,-0.62
2022-11-03T06:33:10.565Z,-0.92
2022-11-03T06:35:37.184Z,-0.91
2022-11-03T06:38:05.504Z,-0.92
2022-11-03T06:40:36.707Z,-0.53
2022-11-03T06:43:28.764Z,-0.57
2022-11-03T06:45:58.274Z,-0.50
2022-11-03T06:48:30.071Z,-0.22
2022-11-03T06:50:58.675Z,-0.17
2022-11-03T06:53:29.529Z,-0.30
2022-11-03T06:55:56.323Z,-0.13
2022-11-03T06:58:28.382Z,-0.03
2022-11-03T07:01:03.544Z,-0.42
2022-11-03T07:03:33.420Z,-0.03
2022-11-03T07:06:03.313Z,-0.21
2022-11-03T07:08:57.029Z,0.18
2022-11-03T07:11:32.026Z,-0.18
2022-11-03T07:14:14.382Z,0.12
2022-11-03T07:16:44.479Z,0.27
2022-11-03T07:19:19.832Z,0.20
2022-11-03T07:21:59.471Z,0.29
2022-11-03T07:24:29.874Z,0.26
2022-11-03T07:27:15.236Z,0.41
2022-11-03T07:29:43.329Z,0.41
2022-11-03T07:32:22.625Z,0.20
2022-11-03T07:34:52.775Z,0.37
2022-11-03T07:37:23.328Z,0.70
2022-11-03T07:39:51.197Z,0.78
2022-11-03T07:42:21.296Z,0.81
2022-11-03T07:44:49.137Z,0.65
2022-11-03T07:47:21.851Z,0.88
2022-11-03T07:49:48.541Z,0.83
2022-11-03T07:52:19.902Z,0.92
2022-11-03T07:54:46.842Z,0.65
2022-11-03T07:57:24.751Z,1.14
2022-11-03T07:59:56.688Z,0.79
2022-11-03T08:02:26.095Z,1.13
2022-11-03T08:04:52.838Z,1.15
2022-11-03T08:07:19.404Z,1.26
2022-11-03T08:09:45.986Z,1.67
2022-11-03T08:12:12.624Z,1.02
2022-11-03T08:14:39.247Z,1.44
2022-11-03T08:17:05.837Z,1.40
2022-11-03T08:19:32.410Z,1.65
2022-11-03T08:21:59.020Z,1.56
2022-11-03T08:24:25.664Z,1.72
2022-11-03T08:26:52.270Z,1.75
2022-11-03T08:29:18.913Z,1.48
2022-11-03T08:31:45.599Z,1.62
2022-11-03T08:34:12.237Z,2.15
2022-11-03T08:36:38.831Z,2.22
2022-11-03T08:39:05.436Z,1.86
2022-11-03T08:41:32.039Z,2.45
2022-11-03T08:43:58.627Z,1.90
2022-11-03T08:46:25.241Z,2.50
2022-11-03T08:48:52.041Z,2.72
2022-11-03T08:51:18.798Z,2.53
2022-11-03T08:53:46.360Z,2.87
2022-11-03T08:56:14.384Z,2.83
2022-11-03T08:58:44.748Z,2.82
2022-11-03T09:01:11.790Z,3.35
2022-11-03T09:03:39.047Z,2.99
2022-11-03T09:06:06.206Z,3.79
2022-11-03T09:11:19.498Z,4.13
2022-11-03T09:13:46.061Z,4.28
2022-11-03T09:16:12.764Z,4.56
2022-11-03T09:18:39.379Z,4.64
2022-11-03T09:21:06.325Z,4.39
2022-11-03T09:23:33.065Z,4.91
2022-11-03T09:25:59.748Z,4.71
2022-11-03T09:28:26.419Z,5.36
2022-11-03T09:30:53.085Z,5.36
2022-11-03T09:33:19.772Z,5.58
2022-11-03T09:35:46.367Z,5.71
2022-11-03T09:38:12.953Z,5.90
2022-11-03T09:40:39.619Z,5.47
2022-11-03T09:43:06.719Z,5.79
2022-11-03T09:45:33.622Z,5.88
2022-11-03T09:48:01.883Z,6.43
2022-11-03T09:50:28.555Z,6.26
2022-11-03T09:52:56.658Z,6.61
2022-11-03T09:55:25.970Z,6.51
2022-11-03T09:57:59.706Z,6.97
2022-11-03T10:00:27.386Z,6.94
2022-11-03T10:02:55.098Z,6.66
2022-11-03T10:05:27.668Z,7.44
2022-11-03T10:08:07.123Z,6.91
2022-11-03T10:10:35.601Z,7.49
2022-11-03T10:13:02.362Z,7.99
2022-11-03T10:15:29.330Z,7.87
2022-11-03T10:17:56.835Z,7.69
2022-11-03T10:20:23.740Z,8.28
2022-11-03T10:22:54.910Z,8.03
2022-11-03T10:25:59.711Z,8.33
2022-11-03T10:28:29.172Z,8.10
2022-11-03T10:31:11.927Z,8.30
2022-11-03T10:33:52.853Z,8.54
2022-11-03T10:36:20.104Z,8.66
2022-11-03T10:38:50.744Z,8.56
2022-11-03T10:41:20.033Z,8.75
2022-11-03T10:44:05.982Z,8.77
2022-11-03T10:49:20.762Z,8.77
2022-11-03T10:51:50.775Z,9.18
2022-11-03T10:54:19.877Z,9.12
2022-11-03T10:56:48.195Z,8.65
2022-11-03T10:59:20.718Z,8.67
2022-11-03T11:01:47.685Z,9.09
2022-11-03T11:04:18.955Z,9.39
2022-11-03T11:06:46.932Z,8.58
2022-11-03T11:09:20.383Z,9.29
2022-11-03T11:12:23.771Z,9.12
2022-11-03T11:14:57.639Z,9.31
2022-11-03T11:17:45.819Z,9.32
2022-11-03T11:20:22.312Z,9.63
2022-11-03T11:22:50.624Z,9.49
2022-11-03T11:25:20.639Z,9.82
2022-11-03T11:27:47.244Z,9.94
2022-11-03T11:30:19.925Z,9.95
2022-11-03T11:32:46.639Z,9.93
2022-11-03T11:35:16.280Z,10.04
2022-11-03T11:37:43.921Z,10.05
2022-11-03T11:40:19.732Z,10.31
2022-11-03T11:43:07.149Z,10.26
2022-11-03T11:46:12.153Z,10.50
2022-11-03T11:48:39.125Z,10.49
2022-11-03T11:51:11.725Z,10.39
2022-11-03T11:53:40.864Z,10.67
2022-11-03T11:56:12.803Z,11.00
2022-11-03T11:58:50.801Z,10.70
2022-11-03T12:01:28.557Z,10.26
2022-11-03T12:04:03.081Z,10.94
2022-11-03T12:06:38.036Z,11.17
2022-11-03T12:09:29.726Z,11.32
2022-11-03T12:12:00.812Z,11.55
2022-11-03T12:14:31.822Z,11.64
2022-11-03T12:17:17.360Z,11.49
2022-11-03T12:19:48.805Z,11.71
2022-11-03T12:22:24.617Z,12.05
2022-11-03T12:25:06.884Z,11.87
2022-11-03T12:27:34.181Z,12.02
2022-11-03T12:30:08.783Z,12.08
2022-11-03T12:32:35.748Z,11.95
2022-11-03T12:35:08.490Z,11.75
2022-11-03T12:37:35.718Z,11.83
2022-11-03T12:40:02.601Z,11.30
2022-11-03T12:42:29.265Z,12.44
2022-11-03T12:44:56.112Z,11.79
2022-11-03T12:47:22.791Z,11.88
2022-11-03T12:49:49.450Z,11.81
2022-11-03T12:52:16.293Z,12.25
2022-11-03T12:54:43.037Z,12.38
2022-11-03T12:57:09.908Z,12.56
2022-11-03T12:59:36.770Z,12.64
2022-11-03T13:02:03.802Z,12.45
2022-11-03T13:04:30.642Z,12.27
2022-11-03T13:06:57.310Z,12.45
2022-11-03T13:09:24.017Z,12.15
2022-11-03T13:12:09.282Z,11.69
2022-11-03T13:14:36.018Z,11.89
2022-11-03T13:17:03.894Z,11.90
2022-11-03T13:19:30.899Z,12.01
2022-11-03T13:21:57.668Z,11.70
2022-11-03T13:24:44.587Z,11.71
2022-11-03T13:27:11.341Z,11.76
2022-11-03T13:29:38.009Z,11.33
2022-11-03T13:32:05.699Z,11.50
2022-11-03T13:34:32.489Z,11.66
2022-11-03T13:36:59.183Z,11.57
2022-11-03T13:39:25.866Z,11.34
2022-11-03T13:41:52.621Z,11.62
2022-11-03T13:44:19.476Z,11.61
2022-11-03T13:46:46.111Z,11.62
2022-11-03T13:51:59.392Z,11.43
2022-11-03T14:00:03.569Z,11.23
2022-11-03T14:05:25.671Z,11.12
2022-11-03T14:07:52.338Z,10.84
2022-11-03T14:10:19.122Z,10.88
2022-11-03T14:12:45.961Z,11.05
2022-11-03T14:15:13.149Z,11.10
2022-11-03T14:17:40.577Z,11.04
2022-11-03T14:20:10.737Z,10.88
2022-11-03T14:22:37.535Z,10.45
2022-11-03T14:25:05.464Z,10.76
2022-11-03T14:27:32.174Z,10.37
2022-11-03T14:29:58.917Z,10.18
2022-11-03T14:32:25.553Z,10.75
2022-11-03T14:34:52.275Z,10.60
2022-11-03T14:37:19.070Z,10.73
2022-11-03T14:39:45.750Z,9.64
2022-11-03T14:42:17.094Z,10.81
2022-11-03T14:44:45.944Z,10.52
2022-11-03T14:47:17.595Z,10.62
2022-11-03T14:49:45.740Z,10.37
2022-11-03T14:52:12.905Z,10.42
2022-11-03T14:54:39.991Z,10.05
2022-11-03T14:57:06.662Z,10.46
2022-11-03T14:59:34.383Z,10.39
2022-11-03T15:02:01.449Z,9.93
2022-11-03T15:04:28.332Z,9.57
2022-11-03T15:06:54.971Z,9.84
2022-11-03T15:09:21.932Z,9.86
2022-11-03T15:11:48.746Z,8.99
2022-11-03T15:14:15.403Z,9.40
2022-11-03T15:16:42.113Z,9.54
2022-11-03T15:19:08.852Z,9.21
2022-11-03T15:21:35.946Z,9.78
2022-11-03T15:26:49.518Z,9.28
2022-11-03T15:29:16.166Z,9.29
2022-11-03T15:31:47.550Z,9.27
2022-11-03T15:34:15.349Z,9.34
2022-11-03T15:36:42.319Z,9.43
2022-11-03T15:39:09.003Z,9.19
2022-11-03T15:41:35.640Z,8.85
2022-11-03T15:44:02.310Z,8.45
2022-11-03T15:46:28.943Z,9.09
2022-11-03T15:48:57.595Z,9.16
2022-11-03T15:51:24.934Z,9.24
2022-11-03T15:53:57.807Z,8.79
2022-11-03T15:56:26.015Z,9.11
2022-11-03T15:58:52.658Z,8.79
2022-11-03T16:01:19.375Z,8.69
2022-11-03T16:03:46.268Z,8.61
2022-11-03T16:06:13.068Z,8.68
2022-11-03T16:08:39.780Z,8.96
2022-11-03T16:11:06.558Z,8.59
2022-11-03T16:13:33.426Z,8.53
2022-11-03T16:16:00.265Z,8.82
2022-11-03T16:18:26.942Z,8.77
2022-11-03T16:20:53.611Z,8.61
2022-11-03T16:23:20.463Z,8.25
2022-11-03T16:25:47.179Z,8.91
2022-11-03T16:28:13.862Z,8.61
2022-11-03T16:30:40.714Z,8.92
2022-11-03T16:33:07.596Z,8.86
2022-11-03T16:35:34.372Z,8.27
2022-11-03T16:38:01.179Z,8.73
2022-11-03T16:40:28.166Z,8.69
2022-11-03T16:42:54.877Z,8.34
2022-11-03T16:45:23.617Z,8.38
2022-11-03T16:47:50.913Z,8.64
2022-11-03T16:50:19.096Z,8.43
2022-11-03T16:52:47.299Z,8.46
2022-11-03T16:55:15.505Z,7.68
2022-11-03T16:57:42.494Z,8.35
2022-11-03T17:00:19.152Z,8.58
2022-11-03T17:02:46.533Z,8.56
2022-11-03T17:05:17.433Z,8.53
2022-11-03T17:07:48.614Z,7.34
2022-11-03T17:10:18.819Z,7.36
2022-11-03T17:12:45.524Z,7.66
2022-11-03T17:15:12.228Z,7.92
2022-11-03T17:17:38.996Z,8.02
2022-11-03T17:20:26.904Z,7.99
2022-11-03T17:22:53.579Z,8.04
2022-11-03T17:25:20.251Z,8.20
2022-11-03T17:27:49.158Z,8.11
2022-11-03T17:30:24.453Z,7.80
2022-11-03T17:32:54.196Z,7.93
2022-11-03T17:35:39.580Z,7.22
2022-11-03T17:38:13.568Z,7.87
2022-11-03T17:40:45.338Z,7.96
2022-11-03T17:43:23.416Z,7.91
2022-11-03T17:45:50.175Z,7.87
2022-11-03T17:48:16.773Z,7.56
2022-11-03T17:50:49.093Z,7.83
2022-11-03T17:53:24.410Z,7.66
2022-11-03T17:56:08.966Z,7.58
2022-11-03T17:58:45.840Z,7.56
2022-11-03T18:01:20.012Z,7.48
2022-11-03T18:03:46.910Z,7.59
2022-11-03T18:06:19.320Z,7.36
2022-11-03T18:08:49.689Z,7.46
2022-11-03T18:11:43.599Z,7.22
2022-11-03T18:14:10.569Z,7.31
2022-11-03T18:16:37.316Z,6.84
2022-11-03T18:19:04.248Z,7.45
2022-11-03T18:21:31.163Z,7.17
2022-11-03T18:23:58.824Z,7.38
2022-11-03T18:26:26.802Z,7.09
2022-11-03T18:28:54.178Z,7.23
2022-11-03T18:31:24.748Z,7.40
2022-11-03T18:33:52.113Z,7.27
2022-11-03T18:36:20.661Z,7.28
2022-11-03T18:38:48.475Z,6.51
2022-11-03T18:41:35.788Z,7.32
2022-11-03T18:44:06.882Z,7.16
2022-11-03T18:46:33.527Z,7.17
2022-11-03T18:49:00.175Z,7.23
2022-11-03T18:51:27.259Z,6.80
2022-11-03T18:53:54.367Z,7.17
2022-11-03T18:56:21.237Z,6.80
2022-11-03T18:58:50.432Z,6.55
2022-11-03T19:01:23.035Z,7.25
2022-11-03T19:03:49.990Z,7.24
2022-11-03T19:06:17.538Z,6.68
2022-11-03T19:08:45.439Z,7.03
2022-11-03T19:11:13.719Z,7.27
2022-11-03T19:13:46.377Z,7.08
2022-11-03T19:16:19.394Z,7.24
2022-11-03T19:18:46.547Z,7.30
2022-11-03T19:21:20.720Z,7.19
2022-11-03T19:23:49.057Z,7.07
2022-11-03T19:26:24.940Z,7.30
2022-11-03T19:28:56.123Z,7.33
2022-11-03T19:31:29.127Z,7.32
2022-11-03T19:33:57.217Z,7.25
2022-11-03T19:36:24.746Z,6.97
2022-11-03T19:38:51.464Z,7.27
2022-11-03T19:41:36.732Z,6.71
2022-11-03T19:44:11.145Z,6.99
2022-11-03T19:46:39.778Z,7.16
2022-11-03T19:49:07.317Z,7.43
2022-11-03T19:51:36.858Z,7.28
2022-11-03T19:54:06.604Z,6.87
2022-11-03T19:56:33.283Z,6.55
2022-11-03T19:59:02.811Z,7.03
2022-11-03T20:01:29.832Z,7.07
2022-11-03T20:03:56.591Z,6.72
2022-11-03T20:06:24.049Z,6.90
2022-11-03T20:08:51.269Z,6.85
2022-11-03T20:11:17.914Z,6.89
2022-11-03T20:13:44.600Z,6.60
2022-11-03T20:16:16.257Z,6.75
2022-11-03T20:18:43.860Z,6.87
2022-11-03T20:21:19.953Z,6.76
2022-11-03T20:23:48.400Z,6.66
2022-11-03T20:26:19.225Z,6.73
2022-11-03T20:28:46.327Z,6.65
2022-11-03T20:31:13.860Z,6.18
2022-11-03T20:33:40.641Z,6.79
2022-11-03T20:36:11.431Z,6.52
2022-11-03T20:38:38.225Z,6.28
2022-11-03T20:41:10.492Z,6.76
2022-11-03T20:43:45.402Z,6.77
2022-11-03T20:46:18.073Z,6.78
2022-11-03T20:48:44.778Z,6.53
2022-11-03T20:51:16.222Z,6.76
2022-11-03T20:53:43.043Z,6.73
2022-11-03T20:56:19.766Z,6.44
2022-11-03T20:58:47.136Z,6.71
2022-11-03T21:01:26.637Z,6.52
2022-11-03T21:03:59.461Z,6.51
2022-11-03T21:06:28.306Z,6.38
2022-11-03T21:08:55.196Z,6.55
2022-11-03T21:11:28.025Z,6.80
2022-11-03T21:13:54.945Z,6.78
2022-11-03T21:16:41.193Z,6.31
2022-11-03T21:19:48.162Z,6.60
2022-11-03T21:22:50.828Z,6.70
2022-11-03T21:25:04.745Z,6.44
2022-11-03T21:27:33.852Z,6.23
2022-11-03T21:30:01.550Z,6.08
2022-11-03T21:32:28.251Z,6.53
2022-11-03T21:34:55.016Z,6.47
2022-11-03T21:37:21.759Z,7.11
2022-11-03T21:39:48.507Z,6.45
2022-11-03T21:42:34.201Z,6.59
2022-11-03T21:45:01.330Z,6.70
2022-11-03T21:47:28.221Z,6.32
2022-11-03T21:49:54.966Z,6.52
2022-11-03T21:52:31.888Z,6.23
2022-11-03T21:55:00.601Z,6.55
2022-11-03T21:57:28.297Z,6.63
2022-11-03T21:59:58.998Z,6.49
2022-11-03T22:02:31.943Z,6.94
2022-11-03T22:04:59.041Z,6.58
2022-11-03T22:07:25.781Z,6.40
2022-11-03T22:09:52.452Z,6.55
2022-11-03T22:12:19.094Z,6.60
2022-11-03T22:15:04.346Z,6.61
2022-11-03T22:17:30.968Z,6.27
2022-11-03T22:20:16.150Z,6.59
2022-11-03T22:23:01.543Z,6.51
2022-11-03T22:25:46.593Z,6.54
2022-11-03T22:28:14.863Z,6.68
2022-11-03T22:31:00.635Z,6.55
2022-11-03T22:33:27.364Z,6.56
2022-11-03T22:36:21.443Z,6.20
2022-11-03T22:39:07.161Z,6.41
2022-11-03T22:41:52.352Z,6.55
2022-11-03T22:44:37.752Z,6.37
2022-11-03T22:47:08.113Z,6.50
2022-11-03T22:49:35.507Z,6.04
2022-11-03T22:52:02.565Z,6.33
2022-11-03T22:54:29.259Z,5.69
2022-11-03T22:56:55.932Z,6.31
2022-11-03T22:59:22.657Z,6.40
2022-11-03T23:01:49.481Z,6.58
2022-11-03T23:04:16.454Z,6.62
2022-11-03T23:06:43.057Z,7.02
2022-11-03T23:09:11.343Z,6.67
2022-11-03T23:11:38.596Z,6.69
2022-11-03T23:14:10.668Z,6.70
2022-11-03T23:16:43.580Z,6.69
2022-11-03T23:19:30.929Z,6.22
2022-11-03T23:21:57.968Z,6.32
2022-11-03T23:24:45.366Z,6.76
2022-11-03T23:27:13.228Z,6.71
2022-11-03T23:29:40.031Z,6.65
2022-11-03T23:32:06.968Z,6.91
2022-11-03T23:34:35.262Z,6.56
2022-11-03T23:37:02.915Z,6.09
2022-11-03T23:39:29.752Z,6.62
2022-11-03T23:41:56.526Z,6.37
2022-11-03T23:44:23.383Z,6.43
2022-11-03T23:47:19.291Z,6.53
2022-11-03T23:49:45.977Z,6.27
2022-11-03T23:52:12.655Z,6.33
2022-11-03T23:54:39.325Z,6.07
2022-11-03T23:57:24.621Z,6.31
2022-11-03T23:59:51.401Z,5.86
